Time;durP1;ratioP1;P1;durP2;ratioP2;P2;SDS_P1;SDS_P2;PMS_P1;PMS_P2;Temp;Humidity;BMP_temperature;BMP_pressure;BME280_temperature;BME280_humidity;BME280_pressure;Samples;Min_cycle;Max_cycle;Signal;HPM_P1;HPM_P2
2021/10/06 00:02:55;;;;;;;10.63;6.90;;;25.10;45.10;;;;;;6230904;28;80283;-66
2021/10/06 00:05:56;;;;;;;10.60;6.70;;;25.10;45.30;;;;;;6233849;27;81404;-66
2021/10/06 00:08:56;;;;;;;9.73;6.82;;;25.10;45.30;;;;;;6229106;28;80157;-66
2021/10/06 00:11:57;;;;;;;10.52;6.55;;;25.10;45.40;;;;;;6229946;27;81111;-66
2021/10/06 00:14:57;;;;;;;9.50;6.90;;;25.10;45.30;;;;;;6230152;28;81662;-66
2021/10/06 00:17:58;;;;;;;11.27;6.53;;;25.10;45.30;;;;;;6230279;28;83180;-66
2021/10/06 00:20:59;;;;;;;16.50;7.70;;;25.10;45.30;;;;;;6231743;28;82991;-66
2021/10/06 00:23:59;;;;;;;9.27;6.00;;;25.10;45.30;;;;;;6230906;28;80635;-65
2021/10/06 00:27:00;;;;;;;10.00;7.20;;;25.00;45.20;;;;;;6224717;27;81414;-66
2021/10/06 00:30:00;;;;;;;13.23;7.55;;;25.00;45.20;;;;;;6229870;27;80414;-65
2021/10/06 00:33:01;;;;;;;10.57;6.93;;;25.00;45.30;;;;;;6231236;27;81150;-67
2021/10/06 00:36:01;;;;;;;11.52;7.43;;;25.00;45.20;;;;;;6233358;27;81026;-67
2021/10/06 00:39:02;;;;;;;10.50;5.97;;;25.00;45.20;;;;;;6230278;27;80754;-66
2021/10/06 00:42:02;;;;;;;9.50;6.95;;;25.00;45.30;;;;;;6221683;28;83768;-65
2021/10/06 00:45:03;;;;;;;14.48;6.65;;;25.00;45.10;;;;;;6230616;27;80347;-66
2021/10/06 00:48:03;;;;;;;14.55;7.05;;;25.00;45.20;;;;;;6231179;28;80444;-66
2021/10/06 00:51:04;;;;;;;15.48;7.25;;;25.00;45.10;;;;;;6227011;28;80363;-65
2021/10/06 00:54:04;;;;;;;9.90;6.85;;;25.00;45.50;;;;;;6230503;27;80571;-66
2021/10/06 00:57:05;;;;;;;10.07;6.82;;;25.00;45.20;;;;;;6229239;28;80245;-66
2021/10/06 01:00:05;;;;;;;11.07;6.63;;;24.90;45.20;;;;;;6226609;27;80845;-67
2021/10/06 01:03:06;;;;;;;11.52;6.93;;;24.90;45.20;;;;;;6230651;28;80893;-67
2021/10/06 01:06:06;;;;;;;14.68;6.50;;;25.00;45.20;;;;;;6223246;27;83034;-66
2021/10/06 01:09:07;;;;;;;9.98;6.90;;;25.00;45.40;;;;;;6223796;28;80873;-66
2021/10/06 01:12:07;;;;;;;11.23;6.60;;;24.90;45.30;;;;;;6231990;27;81747;-66
2021/10/06 01:15:08;;;;;;;15.52;6.82;;;25.00;45.50;;;;;;6236241;27;80408;-66
2021/10/06 01:18:08;;;;;;;9.50;6.38;;;24.90;45.90;;;;;;6235861;28;80959;-66
2021/10/06 01:21:09;;;;;;;9.75;6.30;;;24.90;45.60;;;;;;6235264;28;80864;-66
2021/10/06 01:24:09;;;;;;;10.18;6.78;;;24.90;45.50;;;;;;6230020;27;81005;-66
2021/10/06 01:27:10;;;;;;;8.63;6.43;;;24.90;45.50;;;;;;6234655;27;80615;-67
2021/10/06 01:30:11;;;;;;;11.30;7.07;;;24.90;45.50;;;;;;6234218;27;80470;-66
2021/10/06 01:33:11;;;;;;;8.63;6.22;;;24.90;45.50;;;;;;6234684;27;81263;-66
2021/10/06 01:36:12;;;;;;;9.70;6.38;;;24.90;45.50;;;;;;6235448;28;80078;-66
2021/10/06 01:39:12;;;;;;;8.75;6.78;;;24.90;45.60;;;;;;6225339;27;80324;-66
2021/10/06 01:42:13;;;;;;;9.80;6.18;;;24.90;45.70;;;;;;6222242;28;83055;-66
2021/10/06 01:45:13;;;;;;;7.07;6.07;;;24.90;45.60;;;;;;6234468;27;80307;-66
2021/10/06 01:48:14;;;;;;;10.75;6.30;;;24.90;45.60;;;;;;6225301;28;80365;-67
2021/10/06 01:51:14;;;;;;;10.13;6.18;;;24.90;45.60;;;;;;6232288;28;80499;-66
2021/10/06 01:54:15;;;;;;;8.90;6.03;;;24.90;45.80;;;;;;6233883;28;83385;-66
2021/10/06 01:57:15;;;;;;;10.07;6.63;;;24.90;45.90;;;;;;6234416;27;80644;-67
2021/10/06 02:00:16;;;;;;;13.65;6.07;;;24.90;46.00;;;;;;6233010;27;80528;-66
2021/10/06 02:03:16;;;;;;;9.55;6.85;;;24.90;45.80;;;;;;6232058;27;80352;-66
2021/10/06 02:06:17;;;;;;;7.88;5.82;;;24.90;46.00;;;;;;6233751;28;80591;-66
2021/10/06 02:09:17;;;;;;;8.85;6.18;;;24.90;45.90;;;;;;6228062;27;80620;-66
2021/10/06 02:12:18;;;;;;;8.95;6.32;;;24.90;45.90;;;;;;6238521;27;80655;-67
2021/10/06 02:15:18;;;;;;;9.02;5.95;;;24.90;46.00;;;;;;6231485;28;80267;-66
2021/10/06 02:18:19;;;;;;;9.13;6.57;;;24.90;45.70;;;;;;6233887;27;81441;-67
2021/10/06 02:21:20;;;;;;;7.68;5.82;;;24.90;45.80;;;;;;6232753;27;80815;-66
2021/10/06 02:24:20;;;;;;;8.55;5.38;;;24.90;45.80;;;;;;6232653;27;80802;-66
2021/10/06 02:27:21;;;;;;;8.77;6.13;;;24.90;46.10;;;;;;6233438;27;83674;-66
2021/10/06 02:30:21;;;;;;;8.10;6.55;;;24.90;46.20;;;;;;6234896;27;82360;-65
2021/10/06 02:33:22;;;;;;;11.00;6.68;;;24.90;46.20;;;;;;6233183;27;81325;-66
2021/10/06 02:36:22;;;;;;;8.25;5.50;;;24.90;46.10;;;;;;6231977;28;80446;-66
2021/10/06 02:39:23;;;;;;;7.78;5.93;;;24.90;46.30;;;;;;6228729;27;82492;-66
2021/10/06 02:42:23;;;;;;;11.30;6.35;;;24.90;46.40;;;;;;6229653;27;80707;-66
2021/10/06 02:45:24;;;;;;;9.57;6.30;;;24.90;46.40;;;;;;6234040;27;81605;-66
2021/10/06 02:48:24;;;;;;;8.70;6.25;;;24.90;46.50;;;;;;6232819;27;80492;-67
2021/10/06 02:51:25;;;;;;;8.50;5.95;;;24.90;46.40;;;;;;6233153;27;80906;-66
2021/10/06 02:54:25;;;;;;;8.73;6.25;;;24.80;46.30;;;;;;6230180;27;80494;-66
2021/10/06 02:57:26;;;;;;;8.75;6.25;;;24.90;46.40;;;;;;6225483;27;80540;-65
2021/10/06 03:00:26;;;;;;;9.65;6.03;;;24.90;46.40;;;;;;6226303;28;83200;-67
2021/10/06 03:03:27;;;;;;;9.82;6.25;;;24.90;46.50;;;;;;6235356;28;80735;-67
2021/10/06 03:06:27;;;;;;;10.05;6.32;;;24.90;46.50;;;;;;6233425;27;82068;-66
2021/10/06 03:09:28;;;;;;;7.97;5.80;;;24.90;46.70;;;;;;6232083;28;80377;-67
2021/10/06 03:12:28;;;;;;;9.32;6.18;;;24.90;46.60;;;;;;6223842;27;81419;-67
2021/10/06 03:15:29;;;;;;;7.10;6.13;;;24.90;46.60;;;;;;6232049;28;80671;-67
2021/10/06 03:18:29;;;;;;;8.43;5.72;;;24.90;47.10;;;;;;6233858;27;80775;-66
2021/10/06 03:21:30;;;;;;;8.93;5.80;;;24.90;46.80;;;;;;6222828;28;80646;-67
2021/10/06 03:24:30;;;;;;;12.60;6.30;;;24.90;46.70;;;;;;6225266;27;80482;-66
2021/10/06 03:27:31;;;;;;;11.63;6.47;;;24.90;46.70;;;;;;6230763;28;80198;-66
2021/10/06 03:30:31;;;;;;;8.77;6.20;;;24.90;46.80;;;;;;6232350;27;80621;-67
2021/10/06 03:33:32;;;;;;;9.60;6.47;;;24.90;46.80;;;;;;6230723;27;81380;-66
2021/10/06 03:36:32;;;;;;;10.50;6.40;;;24.90;46.80;;;;;;6232373;27;80632;-67
2021/10/06 03:39:33;;;;;;;9.20;5.63;;;24.90;47.00;;;;;;6233063;27;81987;-67
2021/10/06 03:42:33;;;;;;;11.10;6.25;;;24.90;47.10;;;;;;6231748;28;82452;-66
2021/10/06 03:45:34;;;;;;;9.68;6.07;;;24.90;47.10;;;;;;6218399;28;83291;-67
2021/10/06 03:48:35;;;;;;;7.78;5.70;;;24.90;46.90;;;;;;6227454;27;81673;-67
2021/10/06 03:51:35;;;;;;;7.47;5.50;;;24.90;47.00;;;;;;6230907;28;80376;-67
2021/10/06 03:54:36;;;;;;;9.32;5.63;;;24.90;47.00;;;;;;6233805;28;81244;-66
2021/10/06 03:57:36;;;;;;;8.95;5.60;;;25.00;47.00;;;;;;6232303;28;80987;-66
2021/10/06 04:00:37;;;;;;;8.75;5.93;;;25.00;47.10;;;;;;6231004;27;80652;-65
2021/10/06 04:03:37;;;;;;;6.60;5.30;;;25.10;46.80;;;;;;6228364;28;81731;-66
2021/10/06 04:06:38;;;;;;;7.72;5.25;;;25.10;47.00;;;;;;6236136;27;81332;-68
2021/10/06 04:09:38;;;;;;;9.52;5.80;;;25.10;47.20;;;;;;6231846;28;80483;-66
2021/10/06 04:12:39;;;;;;;7.45;4.72;;;25.10;47.50;;;;;;6231512;27;80676;-66
2021/10/06 04:15:39;;;;;;;9.30;5.63;;;25.10;47.40;;;;;;6231322;28;80908;-67
2021/10/06 04:18:40;;;;;;;8.82;5.82;;;25.10;47.40;;;;;;6232109;27;81386;-67
2021/10/06 04:21:40;;;;;;;8.73;5.80;;;25.10;47.40;;;;;;6237303;28;82368;-66
2021/10/06 04:24:41;;;;;;;7.50;4.72;;;25.10;47.20;;;;;;6212926;28;87846;-64
2021/10/06 04:27:41;;;;;;;7.57;5.25;;;25.10;47.40;;;;;;6207483;28;81262;-65
2021/10/06 04:30:42;;;;;;;48.20;20.95;;;25.20;47.60;;;;;;6226528;28;80413;-65
2021/10/06 04:33:42;;;;;;;24.20;9.95;;;25.20;48.60;;;;;;6217924;28;83179;-66
2021/10/06 04:36:43;;;;;;;42.47;18.27;;;25.20;47.80;;;;;;6233175;28;81654;-65
2021/10/06 04:39:43;;;;;;;128.00;47.25;;;25.30;48.00;;;;;;6228122;28;82999;-66
2021/10/06 04:42:45;;;;;;;216.90;76.78;;;25.20;48.10;;;;;;6225199;28;83080;-65
2021/10/06 04:45:46;;;;;;;126.63;48.85;;;25.20;48.40;;;;;;6230798;27;83182;-65
2021/10/06 04:48:47;;;;;;;122.45;49.08;;;25.30;48.00;;;;;;6228011;28;83245;-64
2021/10/06 04:51:48;;;;;;;147.27;57.95;;;25.30;48.00;;;;;;6233513;27;83461;-65
2021/10/06 04:54:48;;;;;;;139.95;56.08;;;25.30;48.80;;;;;;6239259;27;83171;-65
2021/10/06 04:57:49;;;;;;;140.73;55.00;;;25.30;48.40;;;;;;6226169;28;83102;-66
2021/10/06 05:00:49;;;;;;;145.00;57.08;;;25.30;48.50;;;;;;6225628;28;83765;-65
2021/10/06 05:03:50;;;;;;;128.35;52.90;;;25.30;48.70;;;;;;6223968;28;83053;-65
2021/10/06 05:06:50;;;;;;;122.25;48.65;;;25.30;49.00;;;;;;6227998;27;82836;-65
2021/10/06 05:09:51;;;;;;;121.43;49.53;;;25.20;49.40;;;;;;6203332;28;90634;-65
2021/10/06 05:12:51;;;;;;;112.97;47.22;;;25.20;49.50;;;;;;6224624;28;83221;-65
2021/10/06 05:15:52;;;;;;;118.43;47.33;;;25.20;49.90;;;;;;6229074;28;84314;-65
2021/10/06 05:18:52;;;;;;;114.82;48.22;;;25.20;50.50;;;;;;6230501;28;84703;-66
2021/10/06 05:21:53;;;;;;;136.35;52.38;;;25.30;50.90;;;;;;6231443;27;83299;-66
2021/10/06 05:24:53;;;;;;;120.85;52.90;;;25.30;51.80;;;;;;6224136;27;84360;-65
2021/10/06 05:27:54;;;;;;;159.15;68.13;;;25.30;51.70;;;;;;6226219;27;83886;-66
2021/10/06 05:30:55;;;;;;;178.50;79.97;;;25.30;52.50;;;;;;6229748;28;83027;-66
2021/10/06 05:33:55;;;;;;;254.15;120.82;;;25.30;53.00;;;;;;6229684;27;84036;-66
2021/10/06 05:36:57;;;;;;;198.80;92.05;;;25.30;53.30;;;;;;6228231;27;85277;-66
2021/10/06 05:39:58;;;;;;;165.18;80.43;;;25.40;52.70;;;;;;6230025;27;85401;-66
2021/10/06 05:42:58;;;;;;;181.88;98.28;;;25.40;52.50;;;;;;6230674;27;83257;-66
2021/10/06 05:46:00;;;;;;;190.85;96.88;;;25.40;52.70;;;;;;6229190;28;83249;-65
2021/10/06 05:49:01;;;;;;;235.52;131.02;;;25.40;52.80;;;;;;6228800;28;85322;-65
2021/10/06 05:52:01;;;;;;;232.75;132.20;;;25.40;53.20;;;;;;6225681;28;85325;-67
2021/10/06 05:55:02;;;;;;;262.15;159.32;;;25.40;52.70;;;;;;6224767;28;86266;-68
2021/10/06 05:58:02;;;;;;;263.00;170.82;;;25.50;52.40;;;;;;6226919;27;85679;-66
2021/10/06 06:01:03;;;;;;;232.25;148.27;;;25.50;52.20;;;;;;6221987;27;86000;-66
2021/10/06 06:04:03;;;;;;;218.32;139.98;;;25.40;51.40;;;;;;6218119;28;85760;-66
2021/10/06 06:07:05;;;;;;;194.10;127.18;;;25.40;51.20;;;;;;6226789;27;85484;-67
2021/10/06 06:10:05;;;;;;;167.10;112.72;;;25.40;51.10;;;;;;6221937;27;85412;-71
2021/10/06 06:13:06;;;;;;;180.00;114.07;;;25.40;50.40;;;;;;6203709;28;91034;-68
2021/10/06 06:16:06;;;;;;;152.25;95.82;;;25.40;50.90;;;;;;6201187;28;85500;-66
2021/10/06 06:19:07;;;;;;;158.30;95.18;;;25.30;50.00;;;;;;6207052;28;84209;-65
2021/10/06 06:22:07;;;;;;;143.05;91.90;;;25.40;50.10;;;;;;6234554;28;83966;-66
2021/10/06 06:25:08;;;;;;;143.18;91.18;;;25.40;50.10;;;;;;6230003;28;84461;-65
2021/10/06 06:28:08;;;;;;;142.77;92.78;;;25.40;50.10;;;;;;6241444;27;85824;-65
2021/10/06 06:31:10;;;;;;;136.98;82.72;;;25.40;50.40;;;;;;6226695;27;83511;-66
2021/10/06 06:34:10;;;;;;;120.45;74.38;;;25.40;50.00;;;;;;6227187;27;83075;-66
2021/10/06 06:37:11;;;;;;;117.57;73.40;;;25.40;49.90;;;;;;6228670;28;83291;-66
2021/10/06 06:40:11;;;;;;;106.95;69.78;;;25.30;50.00;;;;;;6223562;27;83632;-66
2021/10/06 06:43:12;;;;;;;108.55;68.72;;;25.40;50.10;;;;;;6228593;27;83113;-66
2021/10/06 06:46:12;;;;;;;106.05;62.38;;;25.40;50.20;;;;;;6226308;28;85295;-66
2021/10/06 06:49:13;;;;;;;97.55;59.70;;;25.40;50.30;;;;;;6224356;28;83298;-67
2021/10/06 06:52:13;;;;;;;90.53;56.00;;;25.30;50.60;;;;;;6215543;28;83443;-67
2021/10/06 06:55:14;;;;;;;82.03;51.05;;;25.30;50.90;;;;;;6218762;27;83117;-67
2021/10/06 06:58:14;;;;;;;81.72;49.92;;;25.40;51.10;;;;;;6221235;28;84072;-65
2021/10/06 07:01:15;;;;;;;72.07;47.20;;;25.30;51.00;;;;;;6220269;27;84029;-66
2021/10/06 07:04:15;;;;;;;71.40;43.10;;;25.30;51.00;;;;;;6228170;28;84751;-66
2021/10/06 07:07:16;;;;;;;71.03;43.35;;;25.40;51.30;;;;;;6216640;27;84708;-66
2021/10/06 07:10:16;;;;;;;66.72;38.92;;;25.40;51.50;;;;;;6226854;28;83147;-67
2021/10/06 07:13:17;;;;;;;57.20;35.97;;;25.40;51.40;;;;;;6224031;27;83277;-63
2021/10/06 07:16:17;;;;;;;56.35;36.17;;;25.40;51.40;;;;;;6228176;27;83419;-64
2021/10/06 07:19:18;;;;;;;55.95;33.53;;;25.40;51.10;;;;;;6228418;28;84012;-64
2021/10/06 07:22:18;;;;;;;55.55;30.77;;;25.50;50.70;;;;;;6224354;28;83182;-64
2021/10/06 07:25:19;;;;;;;47.72;29.98;;;25.50;50.50;;;;;;6229099;27;83171;-64
2021/10/06 07:28:19;;;;;;;48.42;28.80;;;25.50;50.40;;;;;;6222870;27;84708;-64
2021/10/06 07:31:20;;;;;;;47.47;27.75;;;25.50;50.20;;;;;;6226990;28;83734;-64
2021/10/06 07:34:20;;;;;;;48.15;28.35;;;25.50;50.20;;;;;;6228642;27;83709;-64
2021/10/06 07:37:21;;;;;;;39.70;24.30;;;25.40;50.10;;;;;;6227311;27;83056;-63
2021/10/06 07:40:21;;;;;;;41.20;24.38;;;25.40;49.90;;;;;;6217649;28;83182;-66
2021/10/06 07:43:22;;;;;;;39.30;24.58;;;25.40;50.50;;;;;;6227915;27;83322;-63
2021/10/06 07:46:22;;;;;;;38.80;22.92;;;25.40;49.90;;;;;;6218797;27;84210;-63
2021/10/06 07:49:23;;;;;;;36.35;21.40;;;25.40;50.00;;;;;;6222600;28;84438;-64
2021/10/06 07:52:23;;;;;;;36.22;21.30;;;25.40;50.10;;;;;;6223280;27;83745;-63
2021/10/06 07:55:24;;;;;;;31.75;19.92;;;25.40;50.10;;;;;;6225367;28;84031;-63
2021/10/06 07:58:24;;;;;;;33.10;18.85;;;25.40;50.20;;;;;;6221536;27;83732;-65
2021/10/06 08:01:25;;;;;;;32.47;19.20;;;25.40;50.40;;;;;;6214617;28;85350;-64
2021/10/06 08:04:26;;;;;;;32.63;18.25;;;25.30;50.30;;;;;;6233678;28;83183;-65
2021/10/06 08:07:27;;;;;;;29.88;16.13;;;25.40;50.40;;;;;;6221687;27;88617;-65
2021/10/06 08:10:27;;;;;;;24.27;15.27;;;25.40;50.60;;;;;;6222075;28;83964;-64
2021/10/06 08:13:28;;;;;;;24.05;15.80;;;25.30;50.50;;;;;;6222966;28;83978;-64
2021/10/06 08:16:29;;;;;;;24.15;15.15;;;25.40;51.20;;;;;;6222071;27;82795;-65
2021/10/06 08:19:31;;;;;;;27.15;15.65;;;25.50;50.70;;;;;;6224945;27;84037;-65
2021/10/06 08:22:31;;;;;;;26.20;14.57;;;25.50;50.60;;;;;;6221796;27;84234;-64
2021/10/06 08:25:32;;;;;;;27.77;15.70;;;25.50;50.60;;;;;;6221268;28;83414;-64
2021/10/06 08:28:33;;;;;;;26.48;14.30;;;25.60;50.70;;;;;;6216773;28;84560;-64
2021/10/06 08:31:33;;;;;;;23.77;13.77;;;25.50;50.60;;;;;;6221194;28;83370;-64
2021/10/06 08:34:34;;;;;;;25.67;13.90;;;25.50;50.60;;;;;;6218794;28;83285;-66
2021/10/06 08:37:34;;;;;;;22.08;13.10;;;25.50;50.90;;;;;;6217572;28;84196;-65
2021/10/06 08:40:36;;;;;;;18.20;12.55;;;25.50;50.90;;;;;;6219468;28;90258;-64
2021/10/06 08:43:38;;;;;;;21.27;12.43;;;25.50;50.80;;;;;;6221207;27;83947;-65
2021/10/06 08:46:38;;;;;;;17.92;11.63;;;25.50;50.80;;;;;;6224315;28;83584;-66
2021/10/06 08:49:39;;;;;;;19.85;11.68;;;25.50;50.90;;;;;;6222229;27;83730;-65
2021/10/06 08:52:39;;;;;;;24.85;12.30;;;25.50;51.00;;;;;;6219092;28;86206;-65
2021/10/06 08:55:40;;;;;;;15.50;11.15;;;25.50;51.10;;;;;;6220817;27;83932;-66
2021/10/06 08:58:40;;;;;;;16.65;10.88;;;25.50;51.10;;;;;;6225546;28;83816;-65
2021/10/06 09:01:41;;;;;;;16.55;10.65;;;25.50;51.00;;;;;;6222362;28;83163;-66
2021/10/06 09:04:41;;;;;;;17.48;10.05;;;25.50;51.10;;;;;;6226249;27;83616;-67
2021/10/06 09:07:42;;;;;;;17.00;11.02;;;25.50;51.30;;;;;;6226468;27;82910;-66
2021/10/06 09:10:42;;;;;;;17.48;10.07;;;25.50;51.30;;;;;;6218240;28;83840;-65
2021/10/06 09:13:43;;;;;;;15.82;10.30;;;25.50;51.30;;;;;;6219756;28;83424;-65
2021/10/06 09:16:43;;;;;;;17.33;9.70;;;25.50;51.20;;;;;;6222171;28;84479;-65
2021/10/06 09:19:44;;;;;;;12.75;9.45;;;25.50;51.50;;;;;;6225851;28;83093;-65
2021/10/06 09:22:46;;;;;;;18.30;10.30;;;25.50;51.30;;;;;;6224027;27;81609;-64
2021/10/06 09:25:47;;;;;;;15.18;9.27;;;25.50;51.50;;;;;;6221118;27;83379;-63
2021/10/06 09:28:48;;;;;;;20.02;9.73;;;25.50;51.50;;;;;;6227999;28;83604;-63
2021/10/06 09:31:48;;;;;;;20.88;9.68;;;25.50;51.80;;;;;;6228674;27;80378;-65
2021/10/06 09:34:49;;;;;;;16.70;9.00;;;25.40;51.70;;;;;;6232441;27;80216;-65
2021/10/06 09:37:49;;;;;;;17.88;9.10;;;25.50;51.40;;;;;;6226363;28;81378;-65
2021/10/06 09:40:50;;;;;;;23.67;10.93;;;25.40;51.60;;;;;;6228574;27;80353;-65
2021/10/06 09:43:50;;;;;;;12.38;7.70;;;25.50;51.70;;;;;;6228537;27;82865;-64
2021/10/06 09:46:51;;;;;;;244.95;99.78;;;25.50;51.70;;;;;;6226195;28;82891;-64
2021/10/06 09:49:51;;;;;;;529.90;215.45;;;25.50;52.10;;;;;;6229550;27;83174;-65
2021/10/06 09:52:52;;;;;;;377.48;146.70;;;25.50;52.50;;;;;;6223450;27;85311;-65
2021/10/06 09:55:52;;;;;;;296.92;121.57;;;25.50;52.10;;;;;;6226994;27;86005;-65
2021/10/06 09:58:53;;;;;;;260.95;101.68;;;25.50;51.90;;;;;;6217049;28;85262;-64
2021/10/06 10:01:54;;;;;;;241.18;92.35;;;25.50;52.10;;;;;;6219891;28;87211;-64
2021/10/06 10:04:54;;;;;;;219.43;87.13;;;25.50;52.30;;;;;;6226297;28;85345;-65
2021/10/06 10:07:55;;;;;;;192.25;75.72;;;25.50;52.40;;;;;;6229170;27;82855;-66
2021/10/06 10:10:56;;;;;;;159.57;67.63;;;25.50;52.70;;;;;;6228849;27;83372;-65
2021/10/06 10:13:56;;;;;;;163.10;67.15;;;25.50;52.50;;;;;;6221215;27;83294;-65
2021/10/06 10:16:57;;;;;;;152.43;61.42;;;25.50;52.40;;;;;;6223783;27;85128;-65
2021/10/06 10:19:57;;;;;;;148.80;58.13;;;25.50;52.30;;;;;;6226777;27;84119;-65
2021/10/06 10:22:58;;;;;;;119.40;51.80;;;25.50;52.20;;;;;;6219933;28;83417;-65
2021/10/06 10:25:58;;;;;;;135.32;54.65;;;25.50;52.30;;;;;;6224809;27;83000;-64
2021/10/06 10:28:59;;;;;;;111.95;47.67;;;25.50;52.50;;;;;;6224357;28;83100;-65
2021/10/06 10:31:59;;;;;;;118.35;47.70;;;25.50;52.20;;;;;;6227095;28;83387;-65
2021/10/06 10:35:00;;;;;;;112.38;45.67;;;25.50;52.40;;;;;;6228711;27;83602;-64
2021/10/06 10:38:00;;;;;;;96.47;43.15;;;25.50;52.80;;;;;;6226425;28;83385;-66
2021/10/06 10:41:01;;;;;;;90.43;40.20;;;25.50;53.10;;;;;;6227022;27;84305;-65
2021/10/06 10:44:02;;;;;;;93.30;37.95;;;25.50;53.50;;;;;;6225684;27;83142;-65
2021/10/06 10:47:02;;;;;;;84.30;36.67;;;25.50;53.20;;;;;;6224045;28;83012;-66
2021/10/06 10:50:03;;;;;;;81.53;33.80;;;25.50;53.70;;;;;;6217674;28;83663;-67
2021/10/06 10:53:03;;;;;;;70.75;31.90;;;25.50;52.90;;;;;;6228082;28;83792;-65
2021/10/06 10:56:04;;;;;;;78.25;33.13;;;25.60;52.80;;;;;;6228733;27;83284;-65
2021/10/06 10:59:04;;;;;;;72.80;32.17;;;25.50;52.90;;;;;;6229333;27;83114;-66
2021/10/06 11:02:05;;;;;;;57.25;28.23;;;25.50;53.20;;;;;;6228370;27;83832;-65
2021/10/06 11:05:06;;;;;;;57.80;27.13;;;25.50;53.20;;;;;;6214864;28;84014;-66
2021/10/06 11:08:07;;;;;;;61.65;26.38;;;25.50;53.20;;;;;;6225738;27;84274;-66
2021/10/06 11:11:07;;;;;;;55.85;26.50;;;25.60;53.20;;;;;;6228367;28;83012;-66
2021/10/06 11:14:08;;;;;;;58.83;26.35;;;25.60;53.10;;;;;;6218838;27;83466;-65
2021/10/06 11:17:09;;;;;;;53.75;25.15;;;25.50;53.10;;;;;;6222831;27;83235;-65
2021/10/06 11:20:09;;;;;;;56.38;23.98;;;25.60;53.10;;;;;;6224487;27;83150;-66
2021/10/06 11:23:10;;;;;;;56.15;24.13;;;25.50;53.00;;;;;;6221669;27;84613;-66
2021/10/06 11:26:10;;;;;;;49.13;23.15;;;25.50;53.20;;;;;;6222405;28;83386;-66
2021/10/06 11:29:11;;;;;;;51.45;22.13;;;25.50;53.20;;;;;;6216692;27;83898;-66
2021/10/06 11:32:12;;;;;;;42.97;21.27;;;25.50;53.10;;;;;;6218482;28;83725;-67
2021/10/06 11:35:12;;;;;;;36.70;17.20;;;25.50;52.90;;;;;;6227036;27;83225;-65
2021/10/06 11:38:13;;;;;;;31.92;17.05;;;25.50;52.40;;;;;;6229772;28;83619;-66
2021/10/06 11:41:13;;;;;;;29.33;15.98;;;25.50;52.30;;;;;;6219397;28;83341;-66
2021/10/06 11:44:14;;;;;;;31.25;15.18;;;25.50;52.60;;;;;;6224687;27;83870;-66
2021/10/06 11:47:14;;;;;;;29.67;15.35;;;25.50;52.50;;;;;;6222867;28;83217;-66
2021/10/06 11:50:15;;;;;;;28.60;14.98;;;25.50;52.20;;;;;;6223523;27;84293;-66
2021/10/06 11:53:15;;;;;;;27.98;13.82;;;25.50;52.10;;;;;;6226449;27;83264;-66
2021/10/06 11:56:16;;;;;;;26.33;13.70;;;25.50;51.90;;;;;;6223293;27;83333;-65
2021/10/06 11:59:16;;;;;;;30.95;14.65;;;25.50;52.20;;;;;;6220196;28;83176;-66
2021/10/06 12:02:17;;;;;;;24.33;13.45;;;25.50;52.10;;;;;;6224524;28;83578;-65
2021/10/06 12:05:17;;;;;;;23.45;12.38;;;25.50;51.90;;;;;;6222966;28;84352;-65
2021/10/06 12:08:18;;;;;;;21.92;12.48;;;25.50;51.90;;;;;;6224413;28;83604;-69
2021/10/06 12:11:19;;;;;;;20.15;11.40;;;25.50;52.10;;;;;;6223227;28;84398;-66
2021/10/06 12:14:20;;;;;;;16.73;10.20;;;25.50;51.90;;;;;;6221152;27;83104;-67
2021/10/06 12:17:20;;;;;;;20.13;9.68;;;25.50;52.10;;;;;;6220506;28;83984;-67
2021/10/06 12:20:21;;;;;;;19.20;10.23;;;25.40;52.00;;;;;;6230079;28;84376;-65
2021/10/06 12:23:21;;;;;;;19.42;10.15;;;25.50;52.30;;;;;;6225761;27;83607;-65
2021/10/06 12:26:23;;;;;;;20.23;10.93;;;25.40;52.10;;;;;;6222015;28;84055;-65
2021/10/06 12:29:23;;;;;;;20.45;10.68;;;25.50;52.00;;;;;;6218656;28;83143;-67
2021/10/06 12:32:24;;;;;;;13.15;9.48;;;25.40;52.10;;;;;;6219657;28;83067;-65
2021/10/06 12:35:24;;;;;;;14.75;10.10;;;25.50;52.00;;;;;;6221726;27;82919;-65
2021/10/06 12:38:25;;;;;;;17.73;9.18;;;25.40;52.10;;;;;;6222730;27;83296;-65
2021/10/06 12:41:28;;;;;;;15.70;8.60;;;25.40;51.80;;;;;;6226387;27;83008;-65
2021/10/06 12:44:28;;;;;;;12.63;8.77;;;25.40;52.10;;;;;;6224786;28;80984;-64
2021/10/06 12:47:29;;;;;;;14.32;8.65;;;25.50;52.30;;;;;;6228294;27;81786;-65
2021/10/06 12:50:29;;;;;;;14.23;8.60;;;25.40;52.20;;;;;;6222951;28;80680;-65
2021/10/06 12:53:30;;;;;;;17.15;8.75;;;25.40;52.30;;;;;;6224014;28;81469;-65
2021/10/06 12:56:30;;;;;;;12.40;8.07;;;25.40;52.10;;;;;;6228564;27;81394;-63
2021/10/06 12:59:31;;;;;;;14.00;8.55;;;25.40;52.00;;;;;;6224364;28;81827;-64
2021/10/06 13:02:31;;;;;;;13.90;8.23;;;25.40;52.30;;;;;;6219798;28;81407;-65
2021/10/06 13:05:32;;;;;;;11.65;7.70;;;25.40;52.00;;;;;;6234502;27;80528;-65
2021/10/06 13:08:32;;;;;;;15.25;8.70;;;25.40;52.30;;;;;;6235364;27;80708;-65
2021/10/06 13:11:33;;;;;;;10.77;7.70;;;25.40;52.00;;;;;;6234886;27;80697;-65
2021/10/06 13:14:33;;;;;;;13.70;8.30;;;25.30;51.90;;;;;;6233858;27;81825;-67
2021/10/06 13:17:34;;;;;;;12.15;7.28;;;25.30;51.90;;;;;;6225496;27;81295;-66
2021/10/06 13:20:35;;;;;;;11.55;8.07;;;25.30;52.10;;;;;;6232539;27;80492;-65
2021/10/06 13:23:35;;;;;;;12.68;8.30;;;25.30;51.80;;;;;;6228225;27;80537;-65
2021/10/06 13:26:36;;;;;;;11.40;6.88;;;25.40;51.80;;;;;;6233049;27;80372;-67
2021/10/06 13:29:36;;;;;;;14.68;7.47;;;25.30;51.80;;;;;;6232170;28;80810;-66
2021/10/06 13:32:37;;;;;;;12.48;7.40;;;25.40;51.90;;;;;;6222606;28;80403;-65
2021/10/06 13:35:37;;;;;;;11.98;7.32;;;25.40;51.90;;;;;;6234719;27;81402;-66
2021/10/06 13:38:38;;;;;;;11.18;7.32;;;25.40;51.70;;;;;;6227652;27;81029;-66
2021/10/06 13:41:38;;;;;;;13.85;8.15;;;25.30;52.20;;;;;;6235485;28;80871;-64
2021/10/06 13:44:39;;;;;;;10.38;7.20;;;25.30;51.10;;;;;;6232910;27;80419;-66
2021/10/06 13:47:39;;;;;;;12.82;7.15;;;25.30;51.30;;;;;;6229385;27;81573;-66
2021/10/06 13:50:40;;;;;;;7.68;6.43;;;25.30;51.20;;;;;;6232483;27;80533;-65
2021/10/06 13:53:41;;;;;;;11.18;7.25;;;25.30;51.30;;;;;;6233667;28;80537;-66
2021/10/06 13:56:42;;;;;;;13.10;7.60;;;25.30;52.00;;;;;;6228258;27;81656;-65
2021/10/06 13:59:42;;;;;;;12.32;7.32;;;25.30;51.30;;;;;;6226722;28;81453;-66
2021/10/06 14:02:43;;;;;;;14.05;7.53;;;25.30;51.40;;;;;;6223956;27;80563;-66
2021/10/06 14:05:44;;;;;;;13.18;7.53;;;25.20;51.50;;;;;;6233895;27;81759;-65
2021/10/06 14:08:44;;;;;;;12.02;7.35;;;25.30;52.10;;;;;;6228647;28;81203;-65
2021/10/06 14:11:45;;;;;;;12.10;7.07;;;25.30;51.40;;;;;;6233593;27;81951;-65
2021/10/06 14:14:47;;;;;;;13.90;7.57;;;25.30;51.80;;;;;;6226191;27;80497;-66
2021/10/06 14:17:52;;;;;;;11.93;7.25;;;25.30;51.70;;;;;;6224257;28;80689;-66
2021/10/06 14:20:53;;;;;;;14.07;7.27;;;25.30;51.60;;;;;;6221779;27;80814;-66
2021/10/06 14:23:56;;;;;;;8.10;6.15;;;25.30;51.50;;;;;;6230098;27;80244;-67
2021/10/06 14:26:56;;;;;;;10.90;6.85;;;25.30;51.80;;;;;;6232101;27;81414;-67
2021/10/06 14:29:57;;;;;;;10.90;7.13;;;25.30;51.60;;;;;;6230214;28;80507;-67
2021/10/06 14:32:57;;;;;;;13.82;7.18;;;25.30;51.60;;;;;;6232664;27;80288;-66
2021/10/06 14:35:58;;;;;;;12.88;7.22;;;25.30;51.50;;;;;;6228935;27;80753;-66
2021/10/06 14:38:58;;;;;;;10.23;6.72;;;25.30;51.60;;;;;;6226515;27;83729;-66
2021/10/06 14:41:59;;;;;;;17.25;7.32;;;25.30;51.80;;;;;;6228544;27;81021;-66
2021/10/06 14:45:00;;;;;;;14.27;7.65;;;25.30;51.80;;;;;;6222228;27;80704;-66
2021/10/06 14:48:01;;;;;;;13.43;7.75;;;25.30;51.60;;;;;;6232987;27;80298;-66
2021/10/06 14:51:03;;;;;;;12.98;7.82;;;25.30;51.80;;;;;;6231524;27;81424;-67
2021/10/06 14:54:05;;;;;;;15.57;7.88;;;25.30;51.60;;;;;;6227131;28;81726;-67
2021/10/06 14:57:06;;;;;;;16.10;8.00;;;25.30;51.60;;;;;;6229070;27;81072;-67
2021/10/06 15:00:06;;;;;;;11.45;7.45;;;25.30;51.60;;;;;;6232191;27;80876;-66
2021/10/06 15:03:07;;;;;;;11.20;8.00;;;25.30;51.60;;;;;;6231512;27;80248;-66
2021/10/06 15:06:07;;;;;;;116.05;46.85;;;25.30;51.60;;;;;;6234314;27;80819;-66
2021/10/06 15:09:11;;;;;;;218.00;95.20;;;25.30;51.50;;;;;;6229372;28;83354;-67
2021/10/06 15:12:12;;;;;;;273.02;108.28;;;25.20;51.60;;;;;;6226301;27;84330;-66
2021/10/06 15:15:13;;;;;;;233.90;95.30;;;25.30;51.70;;;;;;6224479;28;85818;-66
2021/10/06 15:18:13;;;;;;;211.57;84.57;;;25.20;51.70;;;;;;6227855;27;84084;-64
2021/10/06 15:21:14;;;;;;;191.55;78.35;;;25.30;51.90;;;;;;6222156;28;83844;-66